Item Display Status Serial CT Sensor

Mooring Depth: 1 m

 

Deployed Sensor

  • Serial Number: 8802
  • NDBC Property Number: 35207
  • Start Date: 2/26/2014 (00:00:00 Z)
  • End Date: 4/17/2015 (12:30:00 Z)
Water Temperature [°C]     6 entries per hour
Showing data from 12/2/2014 (02:00:00 Z) to 12/1/2014 (00:00:01 Z)
Previous Next [ Day | 3-Days | 7-Days ]
First Last
Prev [ Day | 3-Days | 7-Days ] Next
First Last

Start Time:     :
End Time:     :     
Time (in GMT) :00 :50 :40 :30 :20 :10
Previous Next [ Day | 3-Days | 7-Days ]
First Last
Prev [ Day | 3-Days | 7-Days ] Next
First Last


123 => good data
MM => data is determined as missing
-- => data not received/configured
Back to Top Back to Top
12/2/2014 02:00 to 1:10 22.325 22.314 22.331 22.359 22.382 22.403
12/2/2014 01:00 to 0:10 22.413 22.389 22.349 22.374 22.377 22.399
12/2/2014 00:00 to 23:10 22.434 22.468 22.487 22.475 22.499 22.472
12/1/2014 23:00 to 22:10 22.466 22.499 22.519 22.521 22.543 22.554
12/1/2014 22:00 to 21:10 22.554 22.559 22.585 22.580 22.562 22.521
12/1/2014 21:00 to 20:10 22.536 22.535 22.540 22.548 22.547 22.514
12/1/2014 20:00 to 19:10 22.535 22.514 22.511 22.497 22.465 22.456
12/1/2014 19:00 to 18:10 22.488 22.456 22.460 22.420 22.403 22.386
12/1/2014 18:00 to 17:10 22.393 22.376 22.358 22.351 22.349 22.312
12/1/2014 17:00 to 16:10 22.267 22.264 22.283 22.295 22.267 22.253
12/1/2014 16:00 to 15:10 22.260 22.253 22.247 22.232 22.248 22.222
12/1/2014 15:00 to 14:10 22.266 22.272 22.234 22.249 22.235 22.220
12/1/2014 14:00 to 13:10 22.183 22.166 22.180 22.178 22.203 22.202
12/1/2014 13:00 to 12:10 22.208 22.217 22.246 22.260 22.247 22.250
12/1/2014 12:00 to 11:10 22.266 22.295 22.322 22.318 22.346 22.362
12/1/2014 11:00 to 10:10 22.359 22.367 22.366 22.368 22.371 22.352
12/1/2014 10:00 to 9:10 22.369 22.333 22.335 22.358 22.346 22.348
12/1/2014 09:00 to 8:10 22.369 22.376 22.396 22.417 22.441 22.456
12/1/2014 08:00 to 7:10 22.429 22.382 22.409 22.438 22.423 22.435
12/1/2014 07:00 to 6:10 22.456 22.454 22.441 22.439 22.423 22.378
12/1/2014 06:00 to 5:10 22.379 22.391 22.409 22.420 22.421 22.471
12/1/2014 05:00 to 4:10 22.453 22.480 22.491 22.514 22.493 --
12/1/2014 04:00 to 3:10 22.513 22.480 22.518 22.556 22.544 22.563
12/1/2014 03:00 to 2:10 22.549 22.559 22.574 22.626 22.580 --
12/1/2014 02:00 to 1:10 22.569 22.564 22.597 22.606 22.586 22.576
12/1/2014 01:00 to 0:10 22.588 22.621 22.694 22.724 22.689 22.729

 

 

 

Conductivity [S/m]     6 entries per hour
Showing data from 12/2/2014 (02:00:00 Z) to 12/1/2014 (00:00:01 Z)
Previous Next [ Day | 3-Days | 7-Days ]
First Last
Prev [ Day | 3-Days | 7-Days ] Next
First Last

Start Time:     :
End Time:     :     
Time (in GMT) :00 :50 :40 :30 :20 :10
Previous Next [ Day | 3-Days | 7-Days ]
First Last
Prev [ Day | 3-Days | 7-Days ] Next
First Last


123 => good data
MM => data is determined as missing
-- => data not received/configured
Back to Top Back to Top
12/2/2014 02:00 to 1:10 4.99291 4.99101 4.99160 4.99536 4.99696 5.00080
12/2/2014 01:00 to 0:10 5.00159 4.99910 4.99476 4.99750 4.99822 4.99861
12/2/2014 00:00 to 23:10 5.00342 5.00680 5.00915 5.00753 5.01024 5.00727
12/1/2014 23:00 to 22:10 5.00698 5.01032 5.01249 5.01244 5.01461 5.01603
12/1/2014 22:00 to 21:10 5.01575 5.01627 5.01881 5.01862 5.01635 5.01253
12/1/2014 21:00 to 20:10 5.01365 5.01365 5.01428 5.01493 5.01438 5.01188
12/1/2014 20:00 to 19:10 5.01323 5.01144 5.01036 5.00962 5.00633 5.00562
12/1/2014 19:00 to 18:10 5.00845 5.00547 5.00579 5.00189 4.99996 4.99818
12/1/2014 18:00 to 17:10 4.99899 4.99683 4.99530 4.99481 4.99433 4.99084
12/1/2014 17:00 to 16:10 4.98665 4.98630 4.98824 4.98943 4.98669 4.98520
12/1/2014 16:00 to 15:10 4.98598 4.98524 4.98450 4.98284 4.98486 4.98256
12/1/2014 15:00 to 14:10 4.98651 4.98695 4.98331 4.98467 4.98346 4.98148
12/1/2014 14:00 to 13:10 4.97771 4.97672 4.97804 4.97813 4.98038 4.98022
12/1/2014 13:00 to 12:10 4.98079 4.98179 4.98444 4.98582 4.98475 4.98537
12/1/2014 12:00 to 11:10 4.98657 4.99011 4.99250 4.99236 4.99503 4.99656
12/1/2014 11:00 to 10:10 4.99647 4.99700 4.99714 4.99714 4.99732 4.99552
12/1/2014 10:00 to 9:10 4.99720 4.99374 4.99409 4.99611 4.99506 4.99536
12/1/2014 09:00 to 8:10 4.99747 4.99831 5.00018 5.00250 5.00478 5.00609
12/1/2014 08:00 to 7:10 5.00340 4.99888 5.00202 5.00431 5.00288 5.00416
12/1/2014 07:00 to 6:10 5.00635 5.00608 5.00481 5.00459 5.00247 4.99789
12/1/2014 06:00 to 5:10 4.99813 4.99895 5.00086 5.00185 5.00288 5.00776
12/1/2014 05:00 to 4:10 5.00619 5.00901 5.01078 5.01277 5.01058 5.01285
12/1/2014 04:00 to 3:10 5.01269 5.00980 5.01384 5.01747 5.01636 5.01827
12/1/2014 03:00 to 2:10 5.01750 5.01831 5.01976 5.02496 5.02047 5.01926
12/1/2014 02:00 to 1:10 5.01943 5.02025 5.02243 5.02340 5.02123 5.02069
12/1/2014 01:00 to 0:10 5.02260 5.02567 5.03307 5.03584 5.03317 5.03673

 

 

 

Salinity [psu]     6 entries per hour
Showing data from 12/2/2014 (02:00:00 Z) to 12/1/2014 (00:00:01 Z)
Previous Next [ Day | 3-Days | 7-Days ]
First Last
Prev [ Day | 3-Days | 7-Days ] Next
First Last

Start Time:     :
End Time:     :     
Time (in GMT) :00 :50 :40 :30 :20 :10
Previous Next [ Day | 3-Days | 7-Days ]
First Last
Prev [ Day | 3-Days | 7-Days ] Next
First Last


123 => good data
MM => data is determined as missing
-- => data not received/configured
Back to Top Back to Top
12/2/2014 02:00 to 1:10 34.71 34.71 34.70 34.70 34.70 34.71
12/2/2014 01:00 to 0:10 34.71 34.71 34.71 34.71 34.71 34.70
12/2/2014 00:00 to 23:10 34.71 34.71 34.71 34.71 34.71 34.71
12/1/2014 23:00 to 22:10 34.71 34.71 34.71 34.71 34.71 34.71
12/1/2014 22:00 to 21:10 34.71 34.71 34.71 34.71 34.71 34.71
12/1/2014 21:00 to 20:10 34.71 34.71 34.71 34.71 34.70 34.71
12/1/2014 20:00 to 19:10 34.70 34.71 34.70 34.71 34.71 34.71
12/1/2014 19:00 to 18:10 34.70 34.71 34.71 34.71 34.71 34.70
12/1/2014 18:00 to 17:10 34.71 34.70 34.71 34.71 34.70 34.71
12/1/2014 17:00 to 16:10 34.71 34.71 34.71 34.71 34.71 34.71
12/1/2014 16:00 to 15:10 34.71 34.71 34.71 34.71 34.71 34.71
12/1/2014 15:00 to 14:10 34.71 34.71 34.71 34.71 34.71 34.71
12/1/2014 14:00 to 13:10 34.71 34.71 34.71 34.71 34.71 34.71
12/1/2014 13:00 to 12:10 34.71 34.71 34.71 34.71 34.71 34.71
12/1/2014 12:00 to 11:10 34.71 34.71 34.71 34.71 34.71 34.71
12/1/2014 11:00 to 10:10 34.71 34.71 34.71 34.71 34.71 34.71
12/1/2014 10:00 to 9:10 34.71 34.71 34.71 34.71 34.71 34.71
12/1/2014 09:00 to 8:10 34.71 34.71 34.71 34.71 34.71 34.71
12/1/2014 08:00 to 7:10 34.71 34.71 34.72 34.71 34.71 34.71
12/1/2014 07:00 to 6:10 34.71 34.71 34.71 34.71 34.71 34.71
12/1/2014 06:00 to 5:10 34.71 34.71 34.71 34.71 34.71 34.71
12/1/2014 05:00 to 4:10 34.71 34.71 34.72 34.72 34.72 --
12/1/2014 04:00 to 3:10 34.72 34.72 34.72 34.72 34.72 34.72
12/1/2014 03:00 to 2:10 34.73 34.72 34.72 34.72 34.72 --
12/1/2014 02:00 to 1:10 34.72 34.74 34.73 34.73 34.73 34.73
12/1/2014 01:00 to 0:10 34.73 34.73 34.73 34.73 34.74 34.73